»·PEaware :: N5755D L52-L88

N5755D :: L52-L88

FLIGHT INFORMATION

Flight Status: Arrived
Operator: Privately registered:
United States
More flights under this callsign
Pilot: Timothy N. (16038)
Aircraft: CESSNA 172 SKYHAWK
(C172)
More flights by this aircraft type
Origin: L52 Oceano Co
United States
Destination: L88 New Cuyama
United States
More flights between these airports :: More routes between these airports
Route: WYNNR
File this flight plan on PilotEdge
Remarks:
Altitude:
(Current/Filed)
3,500ft
Speed:
(Current/Filed)
120kts
Departed: 11-Oct-21 06:33 PM
Arrived: 11-Oct-21 07:04 PM
Distance/Time
Traveled:
47nm/0:31
Distance/Time
To Go:
Arrived

Flight Plot

Page will automatically refresh every two minutes.


Map Options




Map Legend


Flown Route
Filed Route
Departure Airport
Arrival Airport
Navaid (VOR, NDB)
Fix

Horizontal Profiles

Position Reports

Time Latitude Longitude Heading Altitude Ground
Speed
11-Oct-21 18:03 35.103538 -120.624835 34 14ft 0kts
11-Oct-21 18:04 35.103538 -120.624835 34 14ft 0kts
11-Oct-21 18:05 35.103538 -120.624835 34 14ft 0kts
11-Oct-21 18:06 35.103538 -120.624835 34 14ft 0kts
11-Oct-21 18:07 35.103538 -120.624835 34 14ft 0kts
11-Oct-21 18:08 35.103538 -120.624835 34 14ft 0kts
11-Oct-21 18:09 35.103538 -120.624835 34 14ft 0kts
11-Oct-21 18:10 35.103538 -120.624835 34 14ft 0kts
11-Oct-21 18:11 35.103538 -120.624835 34 14ft 0kts
11-Oct-21 18:12 35.103657 -120.624852 310 14ft 6kts
11-Oct-21 18:14 35.103624 -120.625121 237 14ft 0kts
11-Oct-21 18:15 35.103624 -120.625121 237 14ft 0kts
11-Oct-21 18:16 35.103624 -120.625121 237 14ft 0kts
11-Oct-21 18:17 35.103624 -120.625121 237 14ft 0kts
11-Oct-21 18:18 35.103624 -120.625121 237 14ft 0kts
11-Oct-21 18:19 35.103624 -120.625121 237 14ft 0kts
11-Oct-21 18:20 35.103624 -120.625121 237 14ft 0kts
11-Oct-21 18:21 35.103624 -120.625121 237 14ft 0kts
11-Oct-21 18:22 35.103624 -120.625121 237 14ft 0kts
11-Oct-21 18:23 35.103624 -120.625121 237 14ft 0kts
11-Oct-21 18:24 35.103624 -120.625121 237 14ft 0kts
11-Oct-21 18:25 35.103624 -120.625121 237 14ft 0kts
11-Oct-21 18:26 35.103624 -120.625121 237 14ft 0kts
11-Oct-21 18:27 35.103624 -120.625121 237 14ft 0kts
11-Oct-21 18:28 35.103624 -120.625121 237 14ft 0kts
11-Oct-21 18:29 35.103624 -120.625121 237 14ft 0kts
11-Oct-21 18:30 35.103624 -120.625121 237 14ft 0kts
11-Oct-21 18:31 35.103624 -120.625121 237 14ft 0kts
11-Oct-21 18:32 35.103624 -120.625121 237 14ft 0kts
11-Oct-21 18:33 35.102237 -120.623624 120 15ft 53kts
11-Oct-21 18:34 35.093696 -120.602915 78 896ft 76kts
11-Oct-21 18:35 35.096247 -120.577051 84 1855ft 78kts
11-Oct-21 18:35 35.096332 -120.555064 95 2617ft 78kts
11-Oct-21 18:37 35.097283 -120.523555 90 3595ft 81kts
11-Oct-21 18:38 35.098009 -120.496231 72 4393ft 81kts
11-Oct-21 18:39 35.104459 -120.469349 81 5102ft 86kts
11-Oct-21 18:40 35.109564 -120.441799 83 5827ft 84kts
11-Oct-21 18:40 35.110971 -120.415346 78 5987ft 112kts
11-Oct-21 18:42 35.113771 -120.366502 79 5833ft 129kts
11-Oct-21 18:42 35.113505 -120.331109 94 5867ft 125kts
11-Oct-21 18:43 35.115191 -120.288886 85 5888ft 123kts
11-Oct-21 18:45 35.117413 -120.240089 87 5956ft 121kts
11-Oct-21 18:46 35.111704 -120.199877 112 5987ft 123kts
11-Oct-21 18:46 35.101052 -120.166413 109 5880ft 126kts
11-Oct-21 18:47 35.085340 -120.128005 107 5828ft 123kts
11-Oct-21 18:48 35.074718 -120.087820 104 5899ft 117kts
11-Oct-21 18:49 35.063969 -120.057091 113 5971ft 121kts
11-Oct-21 18:51 35.049315 -120.011360 114 5943ft 125kts
11-Oct-21 18:51 35.037530 -119.978711 109 5905ft 125kts
11-Oct-21 18:52 35.025252 -119.938437 116 5821ft 126kts
11-Oct-21 18:53 35.010025 -119.901133 108 5927ft 120kts
11-Oct-21 18:54 34.999463 -119.861549 108 5902ft 127kts
11-Oct-21 18:55 34.985176 -119.822589 119 5461ft 128kts
11-Oct-21 18:56 34.969597 -119.779334 111 3738ft 141kts
11-Oct-21 18:57 34.957080 -119.747143 112 3596ft 86kts
11-Oct-21 18:58 34.949924 -119.719513 118 3662ft 86kts
11-Oct-21 18:59 34.934614 -119.697699 126 3745ft 85kts
11-Oct-21 19:00 34.918759 -119.679350 116 3597ft 67kts
11-Oct-21 19:01 34.924050 -119.663294 10 3043ft 62kts
11-Oct-21 19:02 34.936488 -119.676250 292 2342ft 73kts
11-Oct-21 19:03 34.940253 -119.686176 291 2174ft 21kts
11-Oct-21 19:04 34.948691 -119.703361 283 2702ft 62kts
11-Oct-21 19:05 34.938856 -119.697668 129 3195ft 49kts
11-Oct-21 19:06 34.929635 -119.685204 118 3468ft 54kts
11-Oct-21 19:07 34.928956 -119.669711 1 2945ft 61kts
11-Oct-21 19:08 34.938633 -119.682357 297 2190ft 5kts
11-Oct-21 19:09 34.941897 -119.690347 288 2158ft 16kts
11-Oct-21 19:10 34.942935 -119.690961 182 2155ft 0kts
11-Oct-21 19:11 34.942935 -119.690961 182 2155ft 0kts
11-Oct-21 19:12 34.942935 -119.690961 182 2155ft 0kts
11-Oct-21 19:13 34.942935 -119.690961 182 2155ft 0kts

Navigation Log

Ident Type
Flight plan parsing failed, navigation log unavailable